sensor_id;sensor_type;location;lat;lon;timestamp;temperature;humidity
51029;DHT22;37054;52.054;8.600;2022-07-29T00:01:14;23.10;36.50
51029;DHT22;37054;52.054;8.600;2022-07-29T00:03:40;23.10;36.50
51029;DHT22;37054;52.054;8.600;2022-07-29T00:06:05;23.10;36.50
51029;DHT22;37054;52.054;8.600;2022-07-29T00:08:31;23.10;36.50
51029;DHT22;37054;52.054;8.600;2022-07-29T00:10:56;23.10;36.60
51029;DHT22;37054;52.054;8.600;2022-07-29T00:13:22;23.00;36.80
51029;DHT22;37054;52.054;8.600;2022-07-29T00:15:47;23.00;36.90
51029;DHT22;37054;52.054;8.600;2022-07-29T00:18:13;23.00;36.90
51029;DHT22;37054;52.054;8.600;2022-07-29T00:20:38;22.90;37.00
51029;DHT22;37054;52.054;8.600;2022-07-29T00:23:04;22.90;37.10
51029;DHT22;37054;52.054;8.600;2022-07-29T00:25:29;23.00;37.00
51029;DHT22;37054;52.054;8.600;2022-07-29T00:27:55;22.90;37.10
51029;DHT22;37054;52.054;8.600;2022-07-29T00:30:23;22.90;37.30
51029;DHT22;37054;52.054;8.600;2022-07-29T00:32:49;22.90;37.90
51029;DHT22;37054;52.054;8.600;2022-07-29T00:35:14;22.90;37.90
51029;DHT22;37054;52.054;8.600;2022-07-29T00:37:58;22.90;38.10
51029;DHT22;37054;52.054;8.600;2022-07-29T00:40:24;22.80;38.20
51029;DHT22;37054;52.054;8.600;2022-07-29T00:42:51;22.80;38.30
51029;DHT22;37054;52.054;8.600;2022-07-29T00:45:17;22.80;38.30
51029;DHT22;37054;52.054;8.600;2022-07-29T00:47:43;22.80;38.30
51029;DHT22;37054;52.054;8.600;2022-07-29T00:50:10;22.80;38.20
51029;DHT22;37054;52.054;8.600;2022-07-29T00:52:37;22.80;38.40
51029;DHT22;37054;52.054;8.600;2022-07-29T00:55:03;22.80;38.20
51029;DHT22;37054;52.054;8.600;2022-07-29T00:57:29;22.80;38.20
51029;DHT22;37054;52.054;8.600;2022-07-29T00:59:54;22.80;38.20
51029;DHT22;37054;52.054;8.600;2022-07-29T01:02:21;22.80;38.20
51029;DHT22;37054;52.054;8.600;2022-07-29T01:04:46;22.80;38.10
51029;DHT22;37054;52.054;8.600;2022-07-29T01:07:12;22.80;38.20
51029;DHT22;37054;52.054;8.600;2022-07-29T01:09:38;22.80;38.20
51029;DHT22;37054;52.054;8.600;2022-07-29T01:12:04;22.80;38.20
51029;DHT22;37054;52.054;8.600;2022-07-29T01:14:29;22.80;38.20
51029;DHT22;37054;52.054;8.600;2022-07-29T01:16:59;22.80;38.10
51029;DHT22;37054;52.054;8.600;2022-07-29T01:19:33;22.70;38.10
51029;DHT22;37054;52.054;8.600;2022-07-29T01:22:25;22.70;38.20
51029;DHT22;37054;52.054;8.600;2022-07-29T01:27:32;22.70;38.20
51029;DHT22;37054;52.054;8.600;2022-07-29T01:30:02;22.70;38.30
51029;DHT22;37054;52.054;8.600;2022-07-29T01:32:29;22.70;38.40
51029;DHT22;37054;52.054;8.600;2022-07-29T01:35:12;22.70;38.50
51029;DHT22;37054;52.054;8.600;2022-07-29T01:37:39;22.60;38.60
51029;DHT22;37054;52.054;8.600;2022-07-29T01:40:08;22.60;38.60
51029;DHT22;37054;52.054;8.600;2022-07-29T01:42:38;22.60;38.80
51029;DHT22;37054;52.054;8.600;2022-07-29T01:48:15;22.60;39.10
51029;DHT22;37054;52.054;8.600;2022-07-29T01:51:02;22.50;39.50
51029;DHT22;37054;52.054;8.600;2022-07-29T01:53:25;22.50;39.70
51029;DHT22;37054;52.054;8.600;2022-07-29T01:55:51;22.50;39.60
51029;DHT22;37054;52.054;8.600;2022-07-29T01:58:17;22.50;39.50
51029;DHT22;37054;52.054;8.600;2022-07-29T02:00:43;22.50;39.40
51029;DHT22;37054;52.054;8.600;2022-07-29T02:03:11;22.60;39.30
51029;DHT22;37054;52.054;8.600;2022-07-29T02:05:37;22.50;39.20
51029;DHT22;37054;52.054;8.600;2022-07-29T02:08:04;22.60;39.30
51029;DHT22;37054;52.054;8.600;2022-07-29T02:10:31;22.60;39.30
51029;DHT22;37054;52.054;8.600;2022-07-29T02:12:57;22.60;39.40
51029;DHT22;37054;52.054;8.600;2022-07-29T02:15:24;22.50;39.50
51029;DHT22;37054;52.054;8.600;2022-07-29T02:17:54;22.60;39.60
51029;DHT22;37054;52.054;8.600;2022-07-29T02:20:22;22.50;39.70
51029;DHT22;37054;52.054;8.600;2022-07-29T02:22:48;22.50;39.70
51029;DHT22;37054;52.054;8.600;2022-07-29T02:25:17;22.50;39.70
51029;DHT22;37054;52.054;8.600;2022-07-29T02:27:43;22.50;39.60
51029;DHT22;37054;52.054;8.600;2022-07-29T02:30:09;22.50;39.50
51029;DHT22;37054;52.054;8.600;2022-07-29T02:32:37;22.50;39.50
51029;DHT22;37054;52.054;8.600;2022-07-29T02:35:02;22.50;39.50
51029;DHT22;37054;52.054;8.600;2022-07-29T02:37:28;22.50;39.30
51029;DHT22;37054;52.054;8.600;2022-07-29T02:39:54;22.50;39.30
51029;DHT22;37054;52.054;8.600;2022-07-29T02:42:21;22.60;39.20
51029;DHT22;37054;52.054;8.600;2022-07-29T02:44:49;22.60;39.10
51029;DHT22;37054;52.054;8.600;2022-07-29T02:47:57;22.70;39.00
51029;DHT22;37054;52.054;8.600;2022-07-29T02:50:11;22.60;39.00
51029;DHT22;37054;52.054;8.600;2022-07-29T02:52:39;22.60;39.10
51029;DHT22;37054;52.054;8.600;2022-07-29T02:55:09;22.60;39.40
51029;DHT22;37054;52.054;8.600;2022-07-29T02:58:10;22.50;39.50
51029;DHT22;37054;52.054;8.600;2022-07-29T03:00:28;22.40;39.40
51029;DHT22;37054;52.054;8.600;2022-07-29T03:02:55;22.40;39.40
51029;DHT22;37054;52.054;8.600;2022-07-29T03:05:21;22.30;39.30
51029;DHT22;37054;52.054;8.600;2022-07-29T03:07:49;22.30;39.40
51029;DHT22;37054;52.054;8.600;2022-07-29T03:10:16;22.30;39.50
51029;DHT22;37054;52.054;8.600;2022-07-29T03:12:41;22.30;39.50
51029;DHT22;37054;52.054;8.600;2022-07-29T03:15:07;22.30;39.50
51029;DHT22;37054;52.054;8.600;2022-07-29T03:17:33;22.20;39.60
51029;DHT22;37054;52.054;8.600;2022-07-29T03:19:59;22.20;39.60
51029;DHT22;37054;52.054;8.600;2022-07-29T03:22:25;22.10;39.60
51029;DHT22;37054;52.054;8.600;2022-07-29T03:24:51;22.10;39.70
51029;DHT22;37054;52.054;8.600;2022-07-29T03:27:16;22.10;39.70
51029;DHT22;37054;52.054;8.600;2022-07-29T03:29:42;22.10;39.70
51029;DHT22;37054;52.054;8.600;2022-07-29T03:32:07;22.10;39.70
51029;DHT22;37054;52.054;8.600;2022-07-29T03:34:33;22.10;39.60
51029;DHT22;37054;52.054;8.600;2022-07-29T03:36:58;22.20;39.70
51029;DHT22;37054;52.054;8.600;2022-07-29T03:39:24;22.10;39.80
51029;DHT22;37054;52.054;8.600;2022-07-29T03:41:52;22.10;39.80
51029;DHT22;37054;52.054;8.600;2022-07-29T03:44:18;22.10;39.90
51029;DHT22;37054;52.054;8.600;2022-07-29T03:46:44;22.10;40.00
51029;DHT22;37054;52.054;8.600;2022-07-29T03:49:10;22.10;40.00
51029;DHT22;37054;52.054;8.600;2022-07-29T03:51:36;22.00;40.00
51029;DHT22;37054;52.054;8.600;2022-07-29T03:54:02;22.00;39.90
51029;DHT22;37054;52.054;8.600;2022-07-29T03:56:29;22.00;40.00
51029;DHT22;37054;52.054;8.600;2022-07-29T03:58:55;22.00;40.10
51029;DHT22;37054;52.054;8.600;2022-07-29T04:01:20;21.90;40.20
51029;DHT22;37054;52.054;8.600;2022-07-29T04:03:46;22.00;40.20
51029;DHT22;37054;52.054;8.600;2022-07-29T04:06:11;22.00;40.20
51029;DHT22;37054;52.054;8.600;2022-07-29T04:08:37;22.00;40.20
51029;DHT22;37054;52.054;8.600;2022-07-29T04:11:03;21.90;40.20
51029;DHT22;37054;52.054;8.600;2022-07-29T04:13:29;21.80;40.40
51029;DHT22;37054;52.054;8.600;2022-07-29T04:15:54;21.80;40.50
51029;DHT22;37054;52.054;8.600;2022-07-29T04:18:20;21.80;40.60
51029;DHT22;37054;52.054;8.600;2022-07-29T04:20:45;21.80;40.70
51029;DHT22;37054;52.054;8.600;2022-07-29T04:23:11;21.70;40.80
51029;DHT22;37054;52.054;8.600;2022-07-29T04:25:37;21.70;40.80
51029;DHT22;37054;52.054;8.600;2022-07-29T04:28:02;21.70;40.90
51029;DHT22;37054;52.054;8.600;2022-07-29T04:30:28;21.60;40.90
51029;DHT22;37054;52.054;8.600;2022-07-29T04:32:55;21.60;41.00
51029;DHT22;37054;52.054;8.600;2022-07-29T04:35:21;21.50;41.10
51029;DHT22;37054;52.054;8.600;2022-07-29T04:37:46;21.50;41.30
51029;DHT22;37054;52.054;8.600;2022-07-29T04:40:12;21.40;41.40
51029;DHT22;37054;52.054;8.600;2022-07-29T04:42:37;21.50;41.40
51029;DHT22;37054;52.054;8.600;2022-07-29T04:45:12;21.50;41.60
51029;DHT22;37054;52.054;8.600;2022-07-29T04:47:37;21.40;41.70
51029;DHT22;37054;52.054;8.600;2022-07-29T04:50:03;21.50;41.60
51029;DHT22;37054;52.054;8.600;2022-07-29T04:52:28;21.50;41.60
51029;DHT22;37054;52.054;8.600;2022-07-29T04:54:54;21.60;41.70
51029;DHT22;37054;52.054;8.600;2022-07-29T04:57:19;21.60;41.70
51029;DHT22;37054;52.054;8.600;2022-07-29T04:59:44;21.70;41.70
51029;DHT22;37054;52.054;8.600;2022-07-29T05:02:10;21.70;41.80
51029;DHT22;37054;52.054;8.600;2022-07-29T05:04:35;21.80;41.80
51029;DHT22;37054;52.054;8.600;2022-07-29T05:07:01;21.80;41.70
51029;DHT22;37054;52.054;8.600;2022-07-29T05:09:26;21.90;41.70
51029;DHT22;37054;52.054;8.600;2022-07-29T05:11:51;22.00;41.80
51029;DHT22;37054;52.054;8.600;2022-07-29T05:14:17;22.10;41.90
51029;DHT22;37054;52.054;8.600;2022-07-29T05:16:43;22.30;42.00
51029;DHT22;37054;52.054;8.600;2022-07-29T05:19:08;22.40;42.10
51029;DHT22;37054;52.054;8.600;2022-07-29T05:21:34;22.60;42.00
51029;DHT22;37054;52.054;8.600;2022-07-29T05:23:59;22.80;41.80
51029;DHT22;37054;52.054;8.600;2022-07-29T05:26:25;23.00;41.70
51029;DHT22;37054;52.054;8.600;2022-07-29T05:28:50;23.20;41.60
51029;DHT22;37054;52.054;8.600;2022-07-29T05:31:16;23.30;41.40
51029;DHT22;37054;52.054;8.600;2022-07-29T05:33:41;23.50;41.20
51029;DHT22;37054;52.054;8.600;2022-07-29T05:36:07;23.70;41.00
51029;DHT22;37054;52.054;8.600;2022-07-29T05:38:33;23.80;40.90
51029;DHT22;37054;52.054;8.600;2022-07-29T05:40:58;23.90;40.80
51029;DHT22;37054;52.054;8.600;2022-07-29T05:43:27;24.00;40.60
51029;DHT22;37054;52.054;8.600;2022-07-29T05:45:53;24.10;40.50
51029;DHT22;37054;52.054;8.600;2022-07-29T05:48:18;24.20;40.50
51029;DHT22;37054;52.054;8.600;2022-07-29T05:50:44;24.30;40.40
51029;DHT22;37054;52.054;8.600;2022-07-29T05:53:10;24.40;40.20
51029;DHT22;37054;52.054;8.600;2022-07-29T05:55:35;24.50;40.10
51029;DHT22;37054;52.054;8.600;2022-07-29T05:58:00;24.60;40.10
51029;DHT22;37054;52.054;8.600;2022-07-29T06:00:26;24.60;40.10
51029;DHT22;37054;52.054;8.600;2022-07-29T06:02:51;24.70;40.00
51029;DHT22;37054;52.054;8.600;2022-07-29T06:05:17;24.80;39.80
51029;DHT22;37054;52.054;8.600;2022-07-29T06:07:42;25.00;39.70
51029;DHT22;37054;52.054;8.600;2022-07-29T06:10:08;25.10;39.60
51029;DHT22;37054;52.054;8.600;2022-07-29T06:12:34;25.20;39.30
51029;DHT22;37054;52.054;8.600;2022-07-29T06:14:59;25.30;39.30
51029;DHT22;37054;52.054;8.600;2022-07-29T06:17:25;25.30;39.10
51029;DHT22;37054;52.054;8.600;2022-07-29T06:19:50;25.50;38.90
51029;DHT22;37054;52.054;8.600;2022-07-29T06:22:16;25.60;38.70
51029;DHT22;37054;52.054;8.600;2022-07-29T06:24:42;25.80;38.60
51029;DHT22;37054;52.054;8.600;2022-07-29T06:27:12;25.90;38.60
51029;DHT22;37054;52.054;8.600;2022-07-29T06:29:37;26.20;38.40
51029;DHT22;37054;52.054;8.600;2022-07-29T06:32:03;26.40;37.80
51029;DHT22;37054;52.054;8.600;2022-07-29T06:34:28;26.70;37.30
51029;DHT22;37054;52.054;8.600;2022-07-29T06:36:54;26.80;36.80
51029;DHT22;37054;52.054;8.600;2022-07-29T06:39:19;27.10;36.60
51029;DHT22;37054;52.054;8.600;2022-07-29T06:41:48;27.30;36.60
51029;DHT22;37054;52.054;8.600;2022-07-29T06:44:14;27.50;36.30
51029;DHT22;37054;52.054;8.600;2022-07-29T06:46:40;27.80;36.10
51029;DHT22;37054;52.054;8.600;2022-07-29T06:49:05;28.00;35.70
51029;DHT22;37054;52.054;8.600;2022-07-29T06:51:31;28.20;35.00
51029;DHT22;37054;52.054;8.600;2022-07-29T06:53:56;28.30;34.40
51029;DHT22;37054;52.054;8.600;2022-07-29T06:56:22;28.30;34.10
51029;DHT22;37054;52.054;8.600;2022-07-29T06:58:49;28.50;33.80
51029;DHT22;37054;52.054;8.600;2022-07-29T07:01:15;28.60;33.40
51029;DHT22;37054;52.054;8.600;2022-07-29T07:03:41;28.70;33.10
51029;DHT22;37054;52.054;8.600;2022-07-29T07:06:07;28.70;33.00
51029;DHT22;37054;52.054;8.600;2022-07-29T07:08:32;28.90;33.10
51029;DHT22;37054;52.054;8.600;2022-07-29T07:10:58;29.20;33.10
51029;DHT22;37054;52.054;8.600;2022-07-29T07:13:24;29.30;32.80
51029;DHT22;37054;52.054;8.600;2022-07-29T07:15:49;29.50;32.90
51029;DHT22;37054;52.054;8.600;2022-07-29T07:18:16;29.70;32.40
51029;DHT22;37054;52.054;8.600;2022-07-29T07:20:41;29.80;32.10
51029;DHT22;37054;52.054;8.600;2022-07-29T07:23:06;29.90;31.50
51029;DHT22;37054;52.054;8.600;2022-07-29T07:25:32;29.90;31.40
51029;DHT22;37054;52.054;8.600;2022-07-29T07:27:57;30.00;31.30
51029;DHT22;37054;52.054;8.600;2022-07-29T07:30:23;30.10;31.10
51029;DHT22;37054;52.054;8.600;2022-07-29T07:32:49;30.20;31.00
51029;DHT22;37054;52.054;8.600;2022-07-29T07:35:14;30.30;30.90
51029;DHT22;37054;52.054;8.600;2022-07-29T07:37:40;30.50;31.20
51029;DHT22;37054;52.054;8.600;2022-07-29T07:40:08;31.00;31.40
51029;DHT22;37054;52.054;8.600;2022-07-29T07:42:34;31.40;30.90
51029;DHT22;37054;52.054;8.600;2022-07-29T07:45:01;31.80;29.80
51029;DHT22;37054;52.054;8.600;2022-07-29T07:47:33;32.00;29.10
51029;DHT22;37054;52.054;8.600;2022-07-29T07:49:58;32.30;28.80
51029;DHT22;37054;52.054;8.600;2022-07-29T07:52:25;32.60;28.80
51029;DHT22;37054;52.054;8.600;2022-07-29T07:54:51;32.80;28.40
51029;DHT22;37054;52.054;8.600;2022-07-29T07:57:16;33.00;28.20
51029;DHT22;37054;52.054;8.600;2022-07-29T07:59:43;33.20;27.70
51029;DHT22;37054;52.054;8.600;2022-07-29T08:02:10;33.30;27.50
51029;DHT22;37054;52.054;8.600;2022-07-29T08:04:36;33.30;27.50
51029;DHT22;37054;52.054;8.600;2022-07-29T08:07:01;33.40;27.00
51029;DHT22;37054;52.054;8.600;2022-07-29T08:09:27;33.40;27.00
51029;DHT22;37054;52.054;8.600;2022-07-29T08:11:54;33.60;26.70
51029;DHT22;37054;52.054;8.600;2022-07-29T08:14:21;33.80;26.90
51029;DHT22;37054;52.054;8.600;2022-07-29T08:16:46;34.20;26.70
51029;DHT22;37054;52.054;8.600;2022-07-29T08:19:12;34.30;26.60
51029;DHT22;37054;52.054;8.600;2022-07-29T08:21:37;34.50;26.50
51029;DHT22;37054;52.054;8.600;2022-07-29T08:24:03;34.50;26.40
51029;DHT22;37054;52.054;8.600;2022-07-29T08:26:47;34.50;25.70
51029;DHT22;37054;52.054;8.600;2022-07-29T08:29:16;34.50;25.80
51029;DHT22;37054;52.054;8.600;2022-07-29T08:31:43;34.50;25.40
51029;DHT22;37054;52.054;8.600;2022-07-29T08:34:08;34.40;25.90
51029;DHT22;37054;52.054;8.600;2022-07-29T08:36:34;34.60;26.20
51029;DHT22;37054;52.054;8.600;2022-07-29T08:39:00;35.10;26.20
51029;DHT22;37054;52.054;8.600;2022-07-29T08:41:29;35.70;26.10
51029;DHT22;37054;52.054;8.600;2022-07-29T08:43:54;36.30;25.30
51029;DHT22;37054;52.054;8.600;2022-07-29T08:46:27;37.10;24.80
51029;DHT22;37054;52.054;8.600;2022-07-29T08:52:21;38.30;22.70
51029;DHT22;37054;52.054;8.600;2022-07-29T08:54:50;38.40;21.80
51029;DHT22;37054;52.054;8.600;2022-07-29T08:57:17;38.30;21.60
51029;DHT22;37054;52.054;8.600;2022-07-29T08:59:43;38.30;21.40
51029;DHT22;37054;52.054;8.600;2022-07-29T09:02:12;38.30;21.30
51029;DHT22;37054;52.054;8.600;2022-07-29T09:04:40;38.20;21.10
51029;DHT22;37054;52.054;8.600;2022-07-29T09:07:06;38.00;20.50
51029;DHT22;37054;52.054;8.600;2022-07-29T09:09:33;37.80;20.90
51029;DHT22;37054;52.054;8.600;2022-07-29T09:11:59;37.90;20.70
51029;DHT22;37054;52.054;8.600;2022-07-29T09:14:25;38.10;19.90
51029;DHT22;37054;52.054;8.600;2022-07-29T09:16:54;38.00;19.80
51029;DHT22;37054;52.054;8.600;2022-07-29T09:19:24;37.80;19.50
51029;DHT22;37054;52.054;8.600;2022-07-29T09:21:50;37.70;19.70
51029;DHT22;37054;52.054;8.600;2022-07-29T09:24:25;37.70;19.50
51029;DHT22;37054;52.054;8.600;2022-07-29T09:26:51;37.80;19.70
51029;DHT22;37054;52.054;8.600;2022-07-29T09:29:17;38.10;19.80
51029;DHT22;37054;52.054;8.600;2022-07-29T09:31:44;38.30;19.80
51029;DHT22;37054;52.054;8.600;2022-07-29T09:34:10;38.50;19.70
51029;DHT22;37054;52.054;8.600;2022-07-29T09:36:40;39.00;19.00
51029;DHT22;37054;52.054;8.600;2022-07-29T09:39:05;39.30;18.70
51029;DHT22;37054;52.054;8.600;2022-07-29T09:41:43;39.70;18.40
51029;DHT22;37054;52.054;8.600;2022-07-29T09:44:09;40.00;17.90
51029;DHT22;37054;52.054;8.600;2022-07-29T09:46:34;40.30;18.10
51029;DHT22;37054;52.054;8.600;2022-07-29T09:49:07;40.50;17.60
51029;DHT22;37054;52.054;8.600;2022-07-29T09:51:36;40.70;17.30
51029;DHT22;37054;52.054;8.600;2022-07-29T09:54:03;40.80;17.40
51029;DHT22;37054;52.054;8.600;2022-07-29T09:56:45;40.90;16.90
51029;DHT22;37054;52.054;8.600;2022-07-29T09:59:11;40.80;16.80
51029;DHT22;37054;52.054;8.600;2022-07-29T10:01:37;40.80;16.90
51029;DHT22;37054;52.054;8.600;2022-07-29T10:04:02;40.70;17.10
51029;DHT22;37054;52.054;8.600;2022-07-29T10:06:28;40.60;17.00
51029;DHT22;37054;52.054;8.600;2022-07-29T10:08:54;40.30;17.30
51029;DHT22;37054;52.054;8.600;2022-07-29T10:11:19;40.30;17.60
51029;DHT22;37054;52.054;8.600;2022-07-29T10:13:46;40.40;17.60
51029;DHT22;37054;52.054;8.600;2022-07-29T10:16:12;40.20;17.30
51029;DHT22;37054;52.054;8.600;2022-07-29T10:18:38;39.80;17.30
51029;DHT22;37054;52.054;8.600;2022-07-29T10:21:04;39.50;17.50
51029;DHT22;37054;52.054;8.600;2022-07-29T10:23:30;39.30;18.00
51029;DHT22;37054;52.054;8.600;2022-07-29T10:25:55;39.20;18.00
51029;DHT22;37054;52.054;8.600;2022-07-29T10:28:21;39.10;17.90
51029;DHT22;37054;52.054;8.600;2022-07-29T10:30:46;39.10;18.10
51029;DHT22;37054;52.054;8.600;2022-07-29T10:40:49;39.60;17.50
51029;DHT22;37054;52.054;8.600;2022-07-29T10:43:40;39.50;17.10
51029;DHT22;37054;52.054;8.600;2022-07-29T10:46:06;39.70;17.20
51029;DHT22;37054;52.054;8.600;2022-07-29T10:48:31;39.80;17.20
51029;DHT22;37054;52.054;8.600;2022-07-29T10:50:58;39.90;17.20
51029;DHT22;37054;52.054;8.600;2022-07-29T10:53:24;39.80;17.10
51029;DHT22;37054;52.054;8.600;2022-07-29T10:55:51;39.70;16.90
51029;DHT22;37054;52.054;8.600;2022-07-29T11:00:42;39.40;17.30
51029;DHT22;37054;52.054;8.600;2022-07-29T11:03:08;39.30;17.20
51029;DHT22;37054;52.054;8.600;2022-07-29T11:08:19;39.10;17.50
51029;DHT22;37054;52.054;8.600;2022-07-29T11:10:50;39.10;17.50
51029;DHT22;37054;52.054;8.600;2022-07-29T11:16:00;39.10;17.30
51029;DHT22;37054;52.054;8.600;2022-07-29T11:18:26;38.80;17.60
51029;DHT22;37054;52.054;8.600;2022-07-29T11:20:51;39.00;17.70
51029;DHT22;37054;52.054;8.600;2022-07-29T11:23:34;39.40;17.70
51029;DHT22;37054;52.054;8.600;2022-07-29T11:31:41;40.70;16.90
51029;DHT22;37054;52.054;8.600;2022-07-29T11:34:24;41.20;16.50
51029;DHT22;37054;52.054;8.600;2022-07-29T11:39:32;41.80;15.90
51029;DHT22;37054;52.054;8.600;2022-07-29T11:42:36;41.60;15.90
51029;DHT22;37054;52.054;8.600;2022-07-29T11:44:53;41.50;16.10
51029;DHT22;37054;52.054;8.600;2022-07-29T11:47:19;41.80;16.10
51029;DHT22;37054;52.054;8.600;2022-07-29T11:49:45;41.80;16.10
51029;DHT22;37054;52.054;8.600;2022-07-29T11:52:11;41.60;16.30
51029;DHT22;37054;52.054;8.600;2022-07-29T11:54:36;41.30;16.40
51029;DHT22;37054;52.054;8.600;2022-07-29T11:57:06;41.10;16.70
51029;DHT22;37054;52.054;8.600;2022-07-29T11:59:32;40.70;16.90
51029;DHT22;37054;52.054;8.600;2022-07-29T12:02:03;40.30;17.00
51029;DHT22;37054;52.054;8.600;2022-07-29T12:04:29;40.00;17.40
51029;DHT22;37054;52.054;8.600;2022-07-29T12:06:56;39.90;17.40
51029;DHT22;37054;52.054;8.600;2022-07-29T12:09:22;40.10;17.30
51029;DHT22;37054;52.054;8.600;2022-07-29T12:11:49;40.80;17.30
51029;DHT22;37054;52.054;8.600;2022-07-29T12:14:30;41.60;16.70
51029;DHT22;37054;52.054;8.600;2022-07-29T12:16:56;41.90;16.50
51029;DHT22;37054;52.054;8.600;2022-07-29T12:19:22;42.20;16.10
51029;DHT22;37054;52.054;8.600;2022-07-29T12:21:48;42.20;15.80
51029;DHT22;37054;52.054;8.600;2022-07-29T12:24:14;42.20;15.70
51029;DHT22;37054;52.054;8.600;2022-07-29T12:26:52;41.90;15.70
51029;DHT22;37054;52.054;8.600;2022-07-29T12:29:18;41.30;16.00
51029;DHT22;37054;52.054;8.600;2022-07-29T12:31:44;40.80;16.30
51029;DHT22;37054;52.054;8.600;2022-07-29T12:34:13;40.70;16.20
51029;DHT22;37054;52.054;8.600;2022-07-29T12:36:40;40.30;16.20
51029;DHT22;37054;52.054;8.600;2022-07-29T12:39:06;39.80;16.70
51029;DHT22;37054;52.054;8.600;2022-07-29T12:41:32;39.50;17.10
51029;DHT22;37054;52.054;8.600;2022-07-29T12:43:57;39.40;17.30
51029;DHT22;37054;52.054;8.600;2022-07-29T12:46:23;39.20;17.50
51029;DHT22;37054;52.054;8.600;2022-07-29T12:48:51;38.70;17.90
51029;DHT22;37054;52.054;8.600;2022-07-29T12:51:28;38.30;18.40
51029;DHT22;37054;52.054;8.600;2022-07-29T12:56:28;37.80;18.90
51029;DHT22;37054;52.054;8.600;2022-07-29T12:58:54;37.40;19.30
51029;DHT22;37054;52.054;8.600;2022-07-29T13:01:20;37.20;19.50
51029;DHT22;37054;52.054;8.600;2022-07-29T13:03:47;37.10;19.70
51029;DHT22;37054;52.054;8.600;2022-07-29T13:11:35;37.10;20.10
51029;DHT22;37054;52.054;8.600;2022-07-29T13:14:01;37.10;20.00
51029;DHT22;37054;52.054;8.600;2022-07-29T13:16:27;37.00;20.10
51029;DHT22;37054;52.054;8.600;2022-07-29T13:21:47;36.60;20.60
51029;DHT22;37054;52.054;8.600;2022-07-29T13:24:13;36.50;20.80
51029;DHT22;37054;52.054;8.600;2022-07-29T13:26:41;36.30;21.00
51029;DHT22;37054;52.054;8.600;2022-07-29T13:29:07;36.30;21.20
51029;DHT22;37054;52.054;8.600;2022-07-29T13:31:32;36.30;21.20
51029;DHT22;37054;52.054;8.600;2022-07-29T13:34:01;36.40;21.10
51029;DHT22;37054;52.054;8.600;2022-07-29T13:36:26;36.70;20.80
51029;DHT22;37054;52.054;8.600;2022-07-29T13:38:52;36.70;20.90
51029;DHT22;37054;52.054;8.600;2022-07-29T13:41:20;36.70;20.90
51029;DHT22;37054;52.054;8.600;2022-07-29T13:43:47;36.50;21.00
51029;DHT22;37054;52.054;8.600;2022-07-29T13:46:13;36.30;21.00
51029;DHT22;37054;52.054;8.600;2022-07-29T13:48:38;36.10;21.20
51029;DHT22;37054;52.054;8.600;2022-07-29T13:51:05;35.90;21.40
51029;DHT22;37054;52.054;8.600;2022-07-29T13:53:31;35.80;21.60
51029;DHT22;37054;52.054;8.600;2022-07-29T13:55:56;35.60;21.80
51029;DHT22;37054;52.054;8.600;2022-07-29T13:58:22;35.50;22.00
51029;DHT22;37054;52.054;8.600;2022-07-29T14:00:47;35.30;22.20
51029;DHT22;37054;52.054;8.600;2022-07-29T14:03:13;35.20;22.50
51029;DHT22;37054;52.054;8.600;2022-07-29T14:05:39;35.10;22.80
51029;DHT22;37054;52.054;8.600;2022-07-29T14:08:04;35.00;22.90
51029;DHT22;37054;52.054;8.600;2022-07-29T14:10:29;34.90;23.10
51029;DHT22;37054;52.054;8.600;2022-07-29T14:12:55;34.80;23.30
51029;DHT22;37054;52.054;8.600;2022-07-29T14:15:20;34.70;23.60
51029;DHT22;37054;52.054;8.600;2022-07-29T14:17:46;34.40;23.70
51029;DHT22;37054;52.054;8.600;2022-07-29T14:20:11;34.30;23.80
51029;DHT22;37054;52.054;8.600;2022-07-29T14:22:37;34.30;23.80
51029;DHT22;37054;52.054;8.600;2022-07-29T14:25:02;34.20;23.90
51029;DHT22;37054;52.054;8.600;2022-07-29T14:27:28;34.30;23.80
51029;DHT22;37054;52.054;8.600;2022-07-29T14:29:53;34.30;23.80
51029;DHT22;37054;52.054;8.600;2022-07-29T14:32:19;34.30;23.90
51029;DHT22;37054;52.054;8.600;2022-07-29T14:34:44;34.40;24.00
51029;DHT22;37054;52.054;8.600;2022-07-29T14:37:10;34.40;23.90
51029;DHT22;37054;52.054;8.600;2022-07-29T14:39:35;34.30;23.90
51029;DHT22;37054;52.054;8.600;2022-07-29T14:42:01;34.30;24.10
51029;DHT22;37054;52.054;8.600;2022-07-29T14:44:27;34.30;24.30
51029;DHT22;37054;52.054;8.600;2022-07-29T14:46:59;34.30;24.30
51029;DHT22;37054;52.054;8.600;2022-07-29T14:49:25;34.30;24.30
51029;DHT22;37054;52.054;8.600;2022-07-29T14:51:52;34.30;24.40
51029;DHT22;37054;52.054;8.600;2022-07-29T14:54:17;34.30;24.40
51029;DHT22;37054;52.054;8.600;2022-07-29T14:56:42;34.20;24.40
51029;DHT22;37054;52.054;8.600;2022-07-29T14:59:11;34.10;24.40
51029;DHT22;37054;52.054;8.600;2022-07-29T15:01:36;34.00;24.50
51029;DHT22;37054;52.054;8.600;2022-07-29T15:04:02;33.80;24.70
51029;DHT22;37054;52.054;8.600;2022-07-29T15:06:27;33.80;24.90
51029;DHT22;37054;52.054;8.600;2022-07-29T15:08:53;33.70;25.00
51029;DHT22;37054;52.054;8.600;2022-07-29T15:11:19;33.60;25.20
51029;DHT22;37054;52.054;8.600;2022-07-29T15:13:44;33.50;25.50
51029;DHT22;37054;52.054;8.600;2022-07-29T15:16:10;33.30;25.80
51029;DHT22;37054;52.054;8.600;2022-07-29T15:18:35;33.20;26.20
51029;DHT22;37054;52.054;8.600;2022-07-29T15:21:03;33.10;26.40
51029;DHT22;37054;52.054;8.600;2022-07-29T15:23:29;33.00;26.60
51029;DHT22;37054;52.054;8.600;2022-07-29T15:25:54;32.80;26.80
51029;DHT22;37054;52.054;8.600;2022-07-29T15:28:20;32.70;26.90
51029;DHT22;37054;52.054;8.600;2022-07-29T15:30:45;32.50;27.10
51029;DHT22;37054;52.054;8.600;2022-07-29T15:33:11;32.40;27.20
51029;DHT22;37054;52.054;8.600;2022-07-29T15:35:36;32.30;27.30
51029;DHT22;37054;52.054;8.600;2022-07-29T15:38:02;32.20;27.50
51029;DHT22;37054;52.054;8.600;2022-07-29T15:40:28;32.10;27.60
51029;DHT22;37054;52.054;8.600;2022-07-29T15:42:53;32.00;27.80
51029;DHT22;37054;52.054;8.600;2022-07-29T15:45:19;31.80;27.90
51029;DHT22;37054;52.054;8.600;2022-07-29T15:47:44;31.80;28.00
51029;DHT22;37054;52.054;8.600;2022-07-29T15:50:10;31.70;28.20
51029;DHT22;37054;52.054;8.600;2022-07-29T15:52:40;31.60;28.30
51029;DHT22;37054;52.054;8.600;2022-07-29T15:55:10;31.50;28.50
51029;DHT22;37054;52.054;8.600;2022-07-29T15:57:38;31.40;28.60
51029;DHT22;37054;52.054;8.600;2022-07-29T16:00:05;31.40;28.70
51029;DHT22;37054;52.054;8.600;2022-07-29T16:02:30;31.30;28.80
51029;DHT22;37054;52.054;8.600;2022-07-29T16:04:56;31.30;28.90
51029;DHT22;37054;52.054;8.600;2022-07-29T16:07:21;31.20;28.90
51029;DHT22;37054;52.054;8.600;2022-07-29T16:09:52;31.20;29.00
51029;DHT22;37054;52.054;8.600;2022-07-29T16:12:19;31.10;29.10